Time;durP1;ratioP1;P1;durP2;ratioP2;P2;SDS_P1;SDS_P2;PMS_P1;PMS_P2;Temp;Humidity;BMP_temperature;BMP_pressure;BME280_temperature;BME280_humidity;BME280_pressure;Samples;Min_cycle;Max_cycle;Signal;HPM_P1;HPM_P2
2023/11/06 00:01:16;;;;;;;3.60;0.70;;;;;;;;;;5135741;27;20203;-79
2023/11/06 00:03:43;;;;;;;0.70;0.70;;;;;;;;;;5134234;27;20673;-79
2023/11/06 00:06:11;;;;;;;0.83;0.83;;;;;;;;;;5134794;27;20779;-79
2023/11/06 00:08:38;;;;;;;0.70;0.70;;;;;;;;;;5134004;27;20594;-79
2023/11/06 00:11:05;;;;;;;1.00;1.00;;;;;;;;;;5134786;27;20243;-79
2023/11/06 00:13:32;;;;;;;1.90;1.37;;;;;;;;;;5134315;27;20208;-79
2023/11/06 00:15:59;;;;;;;1.13;1.03;;;;;;;;;;5135266;27;20222;-79
2023/11/06 00:18:25;;;;;;;1.27;1.20;;;;;;;;;;5134582;27;20191;-79
2023/11/06 00:20:52;;;;;;;3.07;1.10;;;;;;;;;;5135029;27;20283;-80
2023/11/06 00:23:20;;;;;;;1.17;1.17;;;;;;;;;;5134450;27;20199;-79
2023/11/06 00:25:47;;;;;;;1.13;1.00;;;;;;;;;;5134214;27;20258;-79
2023/11/06 00:28:14;;;;;;;0.80;0.80;;;;;;;;;;5134211;27;20205;-79
2023/11/06 00:30:41;;;;;;;1.10;0.90;;;;;;;;;;5134342;27;20232;-80
2023/11/06 00:33:08;;;;;;;0.90;0.90;;;;;;;;;;5134446;27;20234;-80
2023/11/06 00:35:34;;;;;;;1.03;1.00;;;;;;;;;;5133640;27;20680;-80
2023/11/06 00:38:01;;;;;;;0.73;0.73;;;;;;;;;;5134632;27;20202;-81
2023/11/06 00:40:30;;;;;;;4.53;1.77;;;;;;;;;;5134633;27;20205;-81
2023/11/06 00:42:57;;;;;;;0.70;0.70;;;;;;;;;;5134385;27;20202;-81
2023/11/06 00:45:24;;;;;;;0.70;0.70;;;;;;;;;;5133701;27;20224;-82
2023/11/06 00:47:51;;;;;;;2.00;0.83;;;;;;;;;;5126887;27;20188;-82
2023/11/06 00:50:18;;;;;;;1.17;1.07;;;;;;;;;;5114093;28;20219;-83
2023/11/06 00:52:45;;;;;;;0.80;0.80;;;;;;;;;;5122039;27;20206;-82
2023/11/06 00:55:11;;;;;;;1.57;1.13;;;;;;;;;;5132577;27;20210;-81
2023/11/06 00:57:39;;;;;;;1.67;1.10;;;;;;;;;;5113874;28;20208;-81
2023/11/06 01:00:10;;;;;;;1.83;1.00;;;;;;;;;;5115059;27;20633;-81
2023/11/06 01:02:38;;;;;;;1.30;1.00;;;;;;;;;;5134252;27;20209;-81
2023/11/06 01:05:05;;;;;;;1.53;0.97;;;;;;;;;;5133236;27;20256;-81
2023/11/06 01:07:32;;;;;;;2.60;1.13;;;;;;;;;;5133666;27;20282;-81
2023/11/06 01:09:59;;;;;;;1.60;1.50;;;;;;;;;;5132890;27;20245;-81
2023/11/06 01:12:25;;;;;;;1.47;0.80;;;;;;;;;;5133600;27;20205;-82
2023/11/06 01:14:54;;;;;;;1.30;0.90;;;;;;;;;;5133400;27;20206;-81
2023/11/06 01:17:20;;;;;;;0.70;0.70;;;;;;;;;;5133973;27;20199;-80
2023/11/06 01:19:47;;;;;;;2.50;0.90;;;;;;;;;;5133294;27;20203;-81
2023/11/06 01:22:15;;;;;;;3.20;1.00;;;;;;;;;;5133876;27;20639;-81
2023/11/06 01:24:41;;;;;;;1.00;1.00;;;;;;;;;;5119624;27;20681;-81
2023/11/06 01:27:09;;;;;;;1.23;1.00;;;;;;;;;;5133474;27;20204;-81
2023/11/06 01:29:36;;;;;;;1.00;0.90;;;;;;;;;;5133227;27;20233;-81
2023/11/06 01:32:05;;;;;;;1.13;1.10;;;;;;;;;;5121704;27;20260;-81
2023/11/06 01:34:32;;;;;;;0.80;0.80;;;;;;;;;;5131520;27;20197;-81
2023/11/06 01:36:59;;;;;;;1.23;1.13;;;;;;;;;;5133041;27;20203;-81
2023/11/06 01:39:26;;;;;;;0.80;0.80;;;;;;;;;;5132885;27;20198;-81
2023/11/06 01:41:53;;;;;;;2.00;1.80;;;;;;;;;;5133157;27;20209;-81
2023/11/06 01:44:21;;;;;;;0.87;0.80;;;;;;;;;;5099364;27;20286;-81
2023/11/06 01:46:47;;;;;;;1.07;0.90;;;;;;;;;;5125604;27;20252;-81
2023/11/06 01:49:17;;;;;;;0.83;0.80;;;;;;;;;;5132448;27;20714;-80
2023/11/06 01:51:44;;;;;;;2.27;0.80;;;;;;;;;;5132663;27;20206;-80
2023/11/06 01:54:12;;;;;;;1.37;0.83;;;;;;;;;;5099110;28;20245;-81
2023/11/06 01:56:40;;;;;;;1.30;0.83;;;;;;;;;;5126828;27;20207;-81
2023/11/06 01:59:07;;;;;;;0.90;0.90;;;;;;;;;;5132062;27;20584;-81
2023/11/06 02:01:37;;;;;;;1.47;0.90;;;;;;;;;;5118260;27;20233;-81
2023/11/06 02:04:06;;;;;;;0.80;0.80;;;;;;;;;;5132330;27;20203;-81
2023/11/06 02:06:35;;;;;;;0.80;0.80;;;;;;;;;;5132733;27;20195;-81
2023/11/06 02:09:03;;;;;;;0.93;0.80;;;;;;;;;;5132201;27;20199;-81
2023/11/06 02:11:30;;;;;;;0.80;0.80;;;;;;;;;;5132260;27;20279;-81
2023/11/06 02:13:58;;;;;;;2.40;0.70;;;;;;;;;;5132810;27;20599;-82
2023/11/06 02:16:25;;;;;;;2.37;0.83;;;;;;;;;;5132237;27;20672;-81
2023/11/06 02:18:52;;;;;;;0.73;0.73;;;;;;;;;;5132136;27;20664;-81
2023/11/06 02:21:19;;;;;;;1.17;0.90;;;;;;;;;;5117470;27;20199;-81
2023/11/06 02:23:47;;;;;;;0.80;0.80;;;;;;;;;;5132116;27;20684;-81
2023/11/06 02:26:14;;;;;;;0.67;0.67;;;;;;;;;;5118500;27;20195;-81
2023/11/06 02:28:41;;;;;;;1.10;0.83;;;;;;;;;;5122662;27;20256;-80
2023/11/06 02:31:08;;;;;;;1.00;1.00;;;;;;;;;;5114338;27;20233;-81
2023/11/06 02:33:34;;;;;;;0.87;0.70;;;;;;;;;;5132595;27;20195;-81
2023/11/06 02:36:01;;;;;;;1.70;1.00;;;;;;;;;;5118464;27;20191;-81
2023/11/06 02:38:28;;;;;;;0.97;0.97;;;;;;;;;;5132125;27;20205;-81
2023/11/06 02:40:56;;;;;;;0.70;0.70;;;;;;;;;;5132345;27;20582;-81
2023/11/06 02:43:23;;;;;;;0.87;0.80;;;;;;;;;;5121241;27;20200;-81
2023/11/06 02:45:49;;;;;;;1.00;1.00;;;;;;;;;;5125088;27;20199;-81
2023/11/06 02:48:16;;;;;;;0.90;0.90;;;;;;;;;;5123523;27;20613;-81
2023/11/06 02:50:44;;;;;;;1.90;0.80;;;;;;;;;;5117996;27;20696;-81
2023/11/06 02:53:11;;;;;;;0.73;0.73;;;;;;;;;;5120571;27;20204;-80
2023/11/06 02:55:37;;;;;;;0.60;0.60;;;;;;;;;;5130164;27;20261;-81
2023/11/06 02:58:05;;;;;;;0.83;0.83;;;;;;;;;;5131863;27;20209;-80
2023/11/06 03:00:32;;;;;;;2.63;0.80;;;;;;;;;;5131627;27;20203;-81
2023/11/06 03:03:01;;;;;;;1.33;0.77;;;;;;;;;;5132024;27;20259;-84
2023/11/06 03:05:28;;;;;;;0.70;0.70;;;;;;;;;;5125261;27;20681;-81
2023/11/06 03:07:55;;;;;;;0.90;0.90;;;;;;;;;;5123977;28;20210;-81
2023/11/06 03:10:21;;;;;;;1.13;0.83;;;;;;;;;;5131243;28;20234;-81
2023/11/06 03:12:48;;;;;;;0.70;0.70;;;;;;;;;;5118675;28;20279;-81
2023/11/06 03:15:16;;;;;;;0.63;0.63;;;;;;;;;;5116902;28;20202;-82
2023/11/06 03:17:43;;;;;;;1.00;1.00;;;;;;;;;;5131799;28;20236;-81
2023/11/06 03:20:11;;;;;;;0.90;0.90;;;;;;;;;;5131429;28;20202;-81
2023/11/06 03:22:38;;;;;;;2.20;1.07;;;;;;;;;;5131788;28;20577;-81
2023/11/06 03:25:06;;;;;;;1.07;0.97;;;;;;;;;;5131073;28;20244;-81
2023/11/06 03:27:33;;;;;;;0.90;0.90;;;;;;;;;;5131911;28;20202;-81
2023/11/06 03:30:00;;;;;;;0.80;0.80;;;;;;;;;;5131147;28;20222;-81
2023/11/06 03:32:28;;;;;;;1.20;1.17;;;;;;;;;;5134119;27;20205;-81
2023/11/06 03:34:56;;;;;;;2.00;1.10;;;;;;;;;;5135901;27;20198;-81
2023/11/06 03:37:23;;;;;;;1.07;1.03;;;;;;;;;;5135108;27;20205;-81
2023/11/06 03:39:50;;;;;;;1.83;1.10;;;;;;;;;;5135665;27;20274;-81
2023/11/06 03:42:16;;;;;;;0.80;0.80;;;;;;;;;;5135530;27;20635;-81
2023/11/06 03:44:43;;;;;;;0.90;0.90;;;;;;;;;;5135180;27;20213;-81
2023/11/06 03:47:10;;;;;;;2.97;0.80;;;;;;;;;;5135448;27;20251;-81
2023/11/06 03:49:39;;;;;;;0.60;0.60;;;;;;;;;;5135031;27;20203;-81
2023/11/06 03:52:10;;;;;;;1.43;0.80;;;;;;;;;;5134830;27;20207;-81
2023/11/06 03:54:37;;;;;;;0.60;0.60;;;;;;;;;;5135118;27;20196;-81
2023/11/06 03:57:04;;;;;;;0.63;0.63;;;;;;;;;;5134711;27;20206;-81
2023/11/06 03:59:31;;;;;;;0.80;0.80;;;;;;;;;;5134816;27;20210;-82
2023/11/06 04:01:57;;;;;;;1.10;1.00;;;;;;;;;;5135370;27;20195;-81
2023/11/06 04:04:24;;;;;;;0.50;0.50;;;;;;;;;;5135084;27;20206;-81
2023/11/06 04:06:52;;;;;;;0.43;0.43;;;;;;;;;;5134381;27;20202;-81
2023/11/06 04:09:19;;;;;;;0.73;0.73;;;;;;;;;;5134615;27;20798;-81
2023/11/06 04:11:46;;;;;;;0.60;0.60;;;;;;;;;;5134537;27;20608;-81
2023/11/06 04:14:13;;;;;;;0.60;0.60;;;;;;;;;;5123670;27;20205;-81
2023/11/06 04:16:39;;;;;;;3.50;1.00;;;;;;;;;;5131484;27;20213;-81
2023/11/06 04:19:06;;;;;;;0.63;0.63;;;;;;;;;;5135111;27;20203;-81
2023/11/06 04:21:33;;;;;;;0.70;0.70;;;;;;;;;;5121071;27;20209;-80
2023/11/06 04:24:01;;;;;;;1.10;1.00;;;;;;;;;;5133715;27;20203;-80
2023/11/06 04:26:28;;;;;;;1.00;1.00;;;;;;;;;;5129374;27;20202;-80
2023/11/06 04:28:55;;;;;;;1.43;1.33;;;;;;;;;;5112661;27;20206;-80
2023/11/06 04:31:22;;;;;;;1.90;1.60;;;;;;;;;;5124172;27;20511;-81
2023/11/06 04:33:49;;;;;;;2.40;1.70;;;;;;;;;;5130029;27;20190;-81
2023/11/06 04:36:16;;;;;;;1.57;1.47;;;;;;;;;;5125219;27;20570;-81
2023/11/06 04:38:42;;;;;;;1.80;1.70;;;;;;;;;;5130030;27;20794;-81
2023/11/06 04:41:11;;;;;;;1.80;1.53;;;;;;;;;;5126145;27;20219;-80
2023/11/06 04:43:37;;;;;;;2.20;1.17;;;;;;;;;;5129234;27;20195;-81
2023/11/06 04:46:05;;;;;;;1.30;1.20;;;;;;;;;;5120412;27;20200;-82
2023/11/06 04:48:32;;;;;;;9.60;4.50;;;;;;;;;;5115403;27;20204;-82
2023/11/06 04:50:59;;;;;;;4.63;3.70;;;;;;;;;;5126243;27;20220;-79
2023/11/06 04:53:25;;;;;;;3.30;2.43;;;;;;;;;;5134309;27;20221;-81
2023/11/06 04:55:52;;;;;;;1.70;1.60;;;;;;;;;;5130797;27;20643;-81
2023/11/06 04:58:23;;;;;;;1.60;1.50;;;;;;;;;;5131572;27;20210;-80
2023/11/06 05:00:50;;;;;;;1.20;1.10;;;;;;;;;;5129954;27;20672;-80
2023/11/06 05:03:17;;;;;;;1.00;1.00;;;;;;;;;;5118500;28;20558;-82
2023/11/06 05:05:44;;;;;;;0.80;0.80;;;;;;;;;;5117213;27;20234;-80
2023/11/06 05:08:11;;;;;;;0.80;0.80;;;;;;;;;;5133800;27;20195;-80
2023/11/06 05:10:38;;;;;;;0.60;0.60;;;;;;;;;;5132749;27;20263;-81
2023/11/06 05:13:05;;;;;;;1.33;0.57;;;;;;;;;;5132675;27;20205;-80
2023/11/06 05:15:33;;;;;;;0.90;0.90;;;;;;;;;;5132726;27;20211;-80
2023/11/06 05:17:59;;;;;;;1.70;1.03;;;;;;;;;;5133845;27;20203;-80
2023/11/06 05:20:26;;;;;;;2.63;2.43;;;;;;;;;;5130245;27;20205;-80
2023/11/06 05:22:53;;;;;;;2.53;1.90;;;;;;;;;;5131358;27;20207;-81
2023/11/06 05:25:20;;;;;;;1.97;1.77;;;;;;;;;;5116110;27;20206;-80
2023/11/06 05:27:47;;;;;;;2.07;1.97;;;;;;;;;;5126526;27;20201;-81
2023/11/06 05:30:13;;;;;;;2.83;1.90;;;;;;;;;;5132860;27;20202;-81
2023/11/06 05:32:42;;;;;;;2.60;1.93;;;;;;;;;;5133071;27;20212;-81
2023/11/06 05:35:09;;;;;;;2.37;2.17;;;;;;;;;;5127176;27;20215;-81
2023/11/06 05:37:37;;;;;;;1.63;1.50;;;;;;;;;;5110541;27;20600;-81
2023/11/06 05:40:04;;;;;;;1.27;1.17;;;;;;;;;;5116288;27;20367;-80
2023/11/06 05:42:31;;;;;;;0.97;0.97;;;;;;;;;;5130343;27;20198;-80
2023/11/06 05:44:58;;;;;;;1.10;1.00;;;;;;;;;;5132738;27;20575;-80
2023/11/06 05:47:25;;;;;;;1.63;1.53;;;;;;;;;;5130363;27;20227;-80
2023/11/06 05:49:55;;;;;;;3.00;1.50;;;;;;;;;;5132120;27;20263;-80
2023/11/06 05:52:22;;;;;;;1.73;1.63;;;;;;;;;;5129406;27;20235;-80
2023/11/06 05:54:48;;;;;;;1.80;1.70;;;;;;;;;;5121952;27;20201;-80
2023/11/06 05:57:15;;;;;;;3.70;2.23;;;;;;;;;;5131419;27;20201;-81
2023/11/06 05:59:42;;;;;;;3.13;2.37;;;;;;;;;;5132967;27;20204;-81
2023/11/06 06:02:09;;;;;;;2.43;2.23;;;;;;;;;;5132455;27;20254;-81
2023/11/06 06:04:36;;;;;;;4.97;3.43;;;;;;;;;;5122799;27;20199;-80
2023/11/06 06:07:04;;;;;;;3.90;3.60;;;;;;;;;;5123655;27;20199;-80
2023/11/06 06:09:32;;;;;;;4.67;3.93;;;;;;;;;;5099518;28;20214;-80
2023/11/06 06:11:59;;;;;;;7.40;5.00;;;;;;;;;;5130218;27;20609;-80
2023/11/06 06:14:26;;;;;;;6.90;6.20;;;;;;;;;;5131780;27;20634;-80
2023/11/06 06:16:53;;;;;;;7.00;5.83;;;;;;;;;;5118184;27;20198;-80
2023/11/06 06:19:21;;;;;;;6.93;6.33;;;;;;;;;;5132078;27;20206;-80
2023/11/06 06:21:48;;;;;;;7.33;6.07;;;;;;;;;;5132261;27;20202;-80
2023/11/06 06:24:17;;;;;;;3.63;3.33;;;;;;;;;;5131996;27;20692;-80
2023/11/06 06:26:44;;;;;;;3.27;2.83;;;;;;;;;;5132520;27;20233;-80
2023/11/06 06:29:11;;;;;;;3.67;2.50;;;;;;;;;;5131506;27;20199;-80
2023/11/06 06:31:37;;;;;;;4.33;2.70;;;;;;;;;;5132419;27;20623;-80
2023/11/06 06:34:04;;;;;;;4.00;3.23;;;;;;;;;;5132293;27;20205;-80
2023/11/06 06:36:31;;;;;;;2.50;2.30;;;;;;;;;;5132427;27;20206;-80
2023/11/06 06:38:58;;;;;;;2.93;2.63;;;;;;;;;;5132006;27;20634;-80
2023/11/06 06:41:26;;;;;;;2.40;2.20;;;;;;;;;;5131623;27;20198;-80
2023/11/06 06:43:53;;;;;;;1.73;1.60;;;;;;;;;;5131381;27;20206;-80
2023/11/06 06:46:20;;;;;;;2.17;1.50;;;;;;;;;;5132588;27;20198;-80
2023/11/06 06:48:48;;;;;;;1.67;1.30;;;;;;;;;;5131664;27;20230;-80
2023/11/06 06:51:14;;;;;;;2.97;1.47;;;;;;;;;;5131166;27;20218;-80
2023/11/06 06:53:42;;;;;;;1.93;1.53;;;;;;;;;;5131899;27;20215;-81
2023/11/06 06:56:09;;;;;;;2.77;1.40;;;;;;;;;;5131730;27;20226;-80
2023/11/06 06:58:38;;;;;;;1.23;1.13;;;;;;;;;;5132003;27;20571;-80
2023/11/06 07:01:06;;;;;;;1.30;1.30;;;;;;;;;;5131948;27;20194;-79
2023/11/06 07:03:35;;;;;;;2.83;1.20;;;;;;;;;;5131568;27;20243;-79
2023/11/06 07:06:03;;;;;;;2.93;1.23;;;;;;;;;;5130892;27;20199;-79
2023/11/06 07:08:30;;;;;;;1.20;1.20;;;;;;;;;;5127791;27;20199;-80
2023/11/06 07:10:57;;;;;;;3.30;1.30;;;;;;;;;;5121617;27;20309;-80
2023/11/06 07:13:24;;;;;;;1.60;1.40;;;;;;;;;;5131163;28;20198;-79
2023/11/06 07:15:52;;;;;;;1.90;1.47;;;;;;;;;;5131778;28;20203;-79
2023/11/06 07:18:19;;;;;;;1.53;1.00;;;;;;;;;;5131684;28;20612;-80
2023/11/06 07:20:46;;;;;;;3.10;1.40;;;;;;;;;;5131189;28;20237;-80
2023/11/06 07:23:13;;;;;;;1.40;1.30;;;;;;;;;;5131711;28;20210;-79
2023/11/06 07:25:40;;;;;;;1.20;1.20;;;;;;;;;;5131871;28;20202;-79
2023/11/06 07:28:06;;;;;;;1.40;1.07;;;;;;;;;;5131670;28;20252;-80
2023/11/06 07:30:33;;;;;;;3.07;1.50;;;;;;;;;;5131345;28;20210;-79
2023/11/06 07:33:03;;;;;;;1.77;1.63;;;;;;;;;;5131579;28;20223;-79
2023/11/06 07:35:30;;;;;;;2.23;1.23;;;;;;;;;;5131422;28;20231;-79
2023/11/06 07:38:03;;;;;;;1.30;1.20;;;;;;;;;;5117732;28;20573;-79
2023/11/06 07:40:30;;;;;;;1.57;1.10;;;;;;;;;;5130292;28;20195;-79
2023/11/06 07:42:57;;;;;;;4.20;1.53;;;;;;;;;;5118686;28;20244;-79
2023/11/06 07:45:24;;;;;;;2.03;1.27;;;;;;;;;;5130871;28;20200;-79
2023/11/06 07:47:50;;;;;;;3.53;1.40;;;;;;;;;;5131397;28;20554;-78
2023/11/06 07:50:19;;;;;;;1.53;1.40;;;;;;;;;;5130856;28;20576;-80
2023/11/06 07:52:46;;;;;;;1.50;1.40;;;;;;;;;;5130982;28;20231;-79
2023/11/06 07:55:12;;;;;;;5.57;1.97;;;;;;;;;;5131106;28;20196;-79
2023/11/06 07:57:40;;;;;;;1.33;1.23;;;;;;;;;;5131319;28;20198;-79
2023/11/06 08:00:12;;;;;;;2.27;1.37;;;;;;;;;;5130907;28;20207;-79
2023/11/06 08:02:40;;;;;;;2.87;1.27;;;;;;;;;;5121385;28;20671;-78
2023/11/06 08:05:08;;;;;;;1.90;1.40;;;;;;;;;;5127631;28;20588;-79
2023/11/06 08:07:38;;;;;;;1.73;1.20;;;;;;;;;;5131547;28;20286;-79
2023/11/06 08:10:07;;;;;;;2.17;1.50;;;;;;;;;;5130083;28;20200;-79
2023/11/06 08:12:34;;;;;;;2.37;1.40;;;;;;;;;;5130888;28;20234;-79
2023/11/06 08:15:01;;;;;;;4.90;1.43;;;;;;;;;;5117390;28;20619;-78
2023/11/06 08:17:28;;;;;;;1.03;1.03;;;;;;;;;;5131327;27;20213;-78
2023/11/06 08:19:54;;;;;;;1.63;1.30;;;;;;;;;;5133412;27;20194;-78
2023/11/06 08:22:21;;;;;;;1.27;1.10;;;;;;;;;;5134863;27;20209;-78
2023/11/06 08:24:50;;;;;;;2.30;1.00;;;;;;;;;;5134518;27;20190;-78
2023/11/06 08:27:16;;;;;;;2.70;1.30;;;;;;;;;;5134773;27;20228;-79
2023/11/06 08:29:43;;;;;;;1.50;1.40;;;;;;;;;;5134127;27;20197;-78
2023/11/06 08:32:11;;;;;;;3.47;1.77;;;;;;;;;;5134566;27;20241;-77
2023/11/06 08:34:40;;;;;;;2.13;1.43;;;;;;;;;;5133770;27;20191;-78
2023/11/06 08:37:07;;;;;;;2.53;1.63;;;;;;;;;;5134296;27;20202;-78
2023/11/06 08:39:34;;;;;;;1.33;1.20;;;;;;;;;;5134267;27;20597;-78
2023/11/06 08:42:02;;;;;;;3.30;1.20;;;;;;;;;;5134331;27;20589;-78
2023/11/06 08:44:31;;;;;;;1.47;1.37;;;;;;;;;;5127207;27;20206;-78
2023/11/06 08:49:55;;;;;;;1.37;1.20;;;;;;;;;;5133524;27;20210;-77
2023/11/06 08:52:21;;;;;;;2.13;1.60;;;;;;;;;;5133844;27;20222;-78
2023/11/06 08:54:48;;;;;;;4.53;1.30;;;;;;;;;;5133711;27;20729;-78
2023/11/06 08:57:16;;;;;;;1.30;1.20;;;;;;;;;;5134135;27;20202;-78
2023/11/06 08:59:43;;;;;;;2.57;1.97;;;;;;;;;;5134273;27;20206;-78
2023/11/06 09:02:11;;;;;;;2.20;1.43;;;;;;;;;;5133657;27;20210;-78
2023/11/06 09:04:41;;;;;;;2.57;1.20;;;;;;;;;;5133900;27;20202;-78
2023/11/06 09:07:07;;;;;;;4.43;1.20;;;;;;;;;;5133548;27;20202;-78
2023/11/06 09:09:35;;;;;;;1.40;1.27;;;;;;;;;;5133864;27;20206;-78
2023/11/06 09:12:02;;;;;;;1.50;0.97;;;;;;;;;;5133003;27;20226;-78
2023/11/06 09:14:30;;;;;;;2.80;1.83;;;;;;;;;;5133891;27;20230;-78
2023/11/06 09:16:57;;;;;;;1.40;1.30;;;;;;;;;;5133239;27;20225;-78
2023/11/06 09:19:24;;;;;;;2.57;1.00;;;;;;;;;;5120177;27;20207;-78
2023/11/06 09:21:50;;;;;;;3.20;1.47;;;;;;;;;;5133848;27;20195;-78
2023/11/06 09:24:17;;;;;;;11.63;5.87;;;;;;;;;;5132766;27;20202;-78
2023/11/06 09:26:46;;;;;;;1.83;1.70;;;;;;;;;;5133272;27;20195;-78
2023/11/06 09:29:12;;;;;;;1.23;1.13;;;;;;;;;;5133126;27;20202;-78
2023/11/06 09:31:41;;;;;;;1.50;1.40;;;;;;;;;;5133772;27;20198;-78
2023/11/06 09:34:07;;;;;;;2.17;1.27;;;;;;;;;;5133017;27;20301;-79
2023/11/06 09:36:34;;;;;;;2.97;1.00;;;;;;;;;;5133440;27;20588;-77
2023/11/06 09:39:01;;;;;;;1.50;1.40;;;;;;;;;;5133095;27;20281;-78
2023/11/06 09:41:28;;;;;;;1.80;1.27;;;;;;;;;;5132913;27;20194;-78
2023/11/06 09:43:55;;;;;;;1.47;1.37;;;;;;;;;;5133042;27;20203;-78
2023/11/06 09:46:22;;;;;;;3.33;1.20;;;;;;;;;;5133088;27;20225;-78
2023/11/06 09:48:50;;;;;;;2.90;1.37;;;;;;;;;;5132412;27;20198;-78
2023/11/06 09:51:17;;;;;;;3.40;1.07;;;;;;;;;;5133412;27;20266;-78
2023/11/06 09:53:46;;;;;;;2.90;1.20;;;;;;;;;;5130490;27;20250;-78
2023/11/06 09:56:14;;;;;;;1.97;1.10;;;;;;;;;;5122230;27;20202;-78
2023/11/06 09:58:41;;;;;;;2.20;1.13;;;;;;;;;;5132144;27;20209;-78
2023/11/06 10:01:09;;;;;;;2.90;0.93;;;;;;;;;;5122638;27;20203;-78
2023/11/06 10:03:37;;;;;;;1.60;1.00;;;;;;;;;;5129584;27;20254;-78
2023/11/06 10:06:06;;;;;;;3.20;0.87;;;;;;;;;;5132685;27;20203;-78
2023/11/06 10:08:36;;;;;;;1.20;1.00;;;;;;;;;;5132559;27;20195;-78
2023/11/06 10:11:04;;;;;;;2.07;1.00;;;;;;;;;;5132305;27;20649;-78
2023/11/06 10:13:31;;;;;;;2.50;1.10;;;;;;;;;;5132471;27;20218;-79
2023/11/06 10:16:17;;;;;;;4.43;1.30;;;;;;;;;;5132127;27;20206;-78
2023/11/06 10:18:44;;;;;;;2.80;1.37;;;;;;;;;;5132473;27;20195;-78
2023/11/06 10:21:27;;;;;;;2.30;0.90;;;;;;;;;;5131908;27;20734;-78
2023/11/06 10:23:59;;;;;;;3.83;1.33;;;;;;;;;;5131723;27;20203;-78
2023/11/06 10:26:29;;;;;;;1.97;1.20;;;;;;;;;;5132381;27;20274;-78
2023/11/06 10:29:08;;;;;;;2.03;1.30;;;;;;;;;;5132024;27;20272;-78
2023/11/06 10:31:39;;;;;;;1.70;0.97;;;;;;;;;;5132472;27;20230;-78
2023/11/06 10:34:24;;;;;;;1.37;1.23;;;;;;;;;;5132133;27;20206;-78
2023/11/06 10:37:02;;;;;;;1.87;1.00;;;;;;;;;;5132309;27;20198;-78
2023/11/06 10:39:29;;;;;;;1.47;1.20;;;;;;;;;;5131473;27;20191;-78
2023/11/06 10:42:01;;;;;;;3.67;1.10;;;;;;;;;;5131213;27;20686;-78
2023/11/06 10:44:28;;;;;;;1.27;1.07;;;;;;;;;;5131791;27;20255;-78
2023/11/06 10:46:55;;;;;;;7.17;2.27;;;;;;;;;;5132171;27;20195;-77
2023/11/06 10:49:30;;;;;;;3.77;2.00;;;;;;;;;;5118469;27;20195;-78
2023/11/06 10:51:59;;;;;;;3.00;1.47;;;;;;;;;;5131653;27;20206;-78
2023/11/06 10:54:28;;;;;;;1.57;1.40;;;;;;;;;;5131658;27;20281;-78
2023/11/06 10:56:57;;;;;;;2.20;1.10;;;;;;;;;;5131580;27;20198;-78
2023/11/06 10:59:24;;;;;;;2.50;1.23;;;;;;;;;;5131659;27;20689;-77
2023/11/06 11:01:52;;;;;;;1.67;1.20;;;;;;;;;;5130890;27;20585;-78
2023/11/06 11:04:19;;;;;;;4.20;1.10;;;;;;;;;;5131668;27;20194;-77
2023/11/06 11:06:47;;;;;;;3.20;1.07;;;;;;;;;;5131930;27;20214;-77
2023/11/06 11:09:15;;;;;;;2.53;1.07;;;;;;;;;;5131549;27;20199;-78
2023/11/06 11:11:43;;;;;;;1.57;1.03;;;;;;;;;;5132149;27;20237;-77
2023/11/06 11:14:11;;;;;;;1.97;1.17;;;;;;;;;;5131510;27;20696;-77
2023/11/06 11:16:39;;;;;;;3.17;1.47;;;;;;;;;;5130849;28;20186;-77
2023/11/06 11:19:24;;;;;;;3.67;1.80;;;;;;;;;;5131394;28;20205;-77
2023/11/06 11:22:02;;;;;;;2.43;1.40;;;;;;;;;;5105645;28;20191;-77
2023/11/06 11:24:49;;;;;;;1.13;1.00;;;;;;;;;;5131475;28;20203;-77
2023/11/06 11:27:18;;;;;;;2.40;1.00;;;;;;;;;;5132144;27;20201;-77
2023/11/06 11:30:10;;;;;;;3.13;1.30;;;;;;;;;;5130815;28;20191;-78
2023/11/06 11:32:52;;;;;;;3.10;1.10;;;;;;;;;;5131296;28;20226;-77
2023/11/06 11:35:47;;;;;;;2.53;1.00;;;;;;;;;;5131468;28;20203;-77
2023/11/06 11:38:14;;;;;;;2.30;1.40;;;;;;;;;;5131124;28;20203;-77
2023/11/06 11:41:15;;;;;;;4.30;1.70;;;;;;;;;;5130411;28;20199;-77
2023/11/06 11:43:50;;;;;;;3.27;1.67;;;;;;;;;;5131310;28;20202;-77
2023/11/06 11:46:56;;;;;;;4.13;1.63;;;;;;;;;;5106002;28;20263;-77
2023/11/06 11:49:38;;;;;;;3.27;1.67;;;;;;;;;;5130614;28;20202;-78
2023/11/06 11:52:05;;;;;;;3.83;1.60;;;;;;;;;;5131714;27;20258;-77
2023/11/06 11:54:33;;;;;;;3.90;1.33;;;;;;;;;;5134907;27;20202;-77
2023/11/06 11:57:03;;;;;;;4.13;1.37;;;;;;;;;;5134866;27;20203;-77
2023/11/06 11:59:38;;;;;;;1.97;1.20;;;;;;;;;;5134674;27;20202;-77
2023/11/06 12:02:06;;;;;;;5.40;2.67;;;;;;;;;;5135388;27;20194;-77
2023/11/06 12:04:33;;;;;;;4.23;3.00;;;;;;;;;;5135025;27;20206;-77
2023/11/06 12:07:04;;;;;;;4.73;1.40;;;;;;;;;;5134898;27;20687;-77
2023/11/06 12:09:46;;;;;;;4.10;1.60;;;;;;;;;;5134826;27;20201;-77
2023/11/06 12:12:13;;;;;;;2.97;1.80;;;;;;;;;;5110185;27;20269;-77
2023/11/06 12:14:41;;;;;;;3.90;1.10;;;;;;;;;;5134239;27;20206;-77
2023/11/06 12:17:08;;;;;;;1.47;1.00;;;;;;;;;;5134790;27;20202;-77
2023/11/06 12:19:39;;;;;;;3.97;1.73;;;;;;;;;;5134142;27;20688;-77
2023/11/06 12:22:06;;;;;;;2.47;1.60;;;;;;;;;;5135015;27;20199;-76
2023/11/06 12:24:47;;;;;;;3.23;1.30;;;;;;;;;;5134266;27;20202;-77
2023/11/06 12:27:13;;;;;;;4.73;1.37;;;;;;;;;;5135180;27;20198;-77
2023/11/06 12:29:42;;;;;;;3.07;1.60;;;;;;;;;;5133773;27;20205;-77
2023/11/06 12:32:20;;;;;;;2.50;1.20;;;;;;;;;;5134575;27;20676;-77
2023/11/06 12:34:48;;;;;;;5.03;1.50;;;;;;;;;;5134586;27;20207;-77
2023/11/06 12:37:15;;;;;;;4.00;1.40;;;;;;;;;;5134052;27;20206;-77
2023/11/06 12:39:42;;;;;;;4.23;2.10;;;;;;;;;;5134356;27;20195;-77
2023/11/06 12:42:12;;;;;;;1.20;0.93;;;;;;;;;;5134585;27;20202;-77
2023/11/06 12:44:40;;;;;;;5.27;1.53;;;;;;;;;;5133993;27;20267;-77
2023/11/06 12:47:09;;;;;;;2.70;1.30;;;;;;;;;;5134064;27;20195;-77
2023/11/06 12:49:48;;;;;;;3.73;1.80;;;;;;;;;;5134097;27;20281;-77
2023/11/06 12:52:17;;;;;;;5.57;1.90;;;;;;;;;;5133880;27;20195;-77
2023/11/06 12:54:45;;;;;;;2.27;1.40;;;;;;;;;;5133732;27;20233;-77
2023/11/06 12:57:11;;;;;;;6.33;1.90;;;;;;;;;;5133684;27;20665;-77
2023/11/06 12:59:38;;;;;;;6.70;1.80;;;;;;;;;;5133759;27;20684;-77
2023/11/06 13:02:06;;;;;;;3.93;1.57;;;;;;;;;;5133239;27;20209;-77
2023/11/06 13:04:37;;;;;;;3.43;1.33;;;;;;;;;;5132699;27;20294;-77
2023/11/06 13:07:04;;;;;;;3.23;1.20;;;;;;;;;;5119961;27;20236;-77
2023/11/06 13:09:31;;;;;;;3.63;1.30;;;;;;;;;;5133757;27;20203;-77
2023/11/06 13:11:58;;;;;;;2.37;1.10;;;;;;;;;;5133730;27;20222;-77
2023/11/06 13:14:25;;;;;;;2.77;1.43;;;;;;;;;;5133614;27;20629;-77
2023/11/06 13:16:53;;;;;;;7.50;2.03;;;;;;;;;;5133601;27;20191;-77
2023/11/06 13:19:27;;;;;;;1.80;1.13;;;;;;;;;;5133800;27;20285;-77
2023/11/06 13:21:58;;;;;;;1.87;0.90;;;;;;;;;;5133819;27;20208;-77
2023/11/06 13:24:28;;;;;;;1.30;0.80;;;;;;;;;;5132764;27;20195;-77
2023/11/06 13:26:56;;;;;;;3.57;1.50;;;;;;;;;;5134166;27;20202;-77
2023/11/06 13:29:24;;;;;;;2.67;0.80;;;;;;;;;;5133216;27;20198;-77
2023/11/06 13:31:51;;;;;;;3.33;1.13;;;;;;;;;;5133241;27;20705;-77
2023/11/06 13:34:18;;;;;;;1.40;1.23;;;;;;;;;;5132819;27;20231;-77
2023/11/06 13:36:48;;;;;;;1.67;1.20;;;;;;;;;;5133885;27;20298;-77
2023/11/06 13:39:24;;;;;;;2.93;1.40;;;;;;;;;;5132996;27;20206;-77
2023/11/06 13:41:56;;;;;;;4.50;1.30;;;;;;;;;;5133469;27;20290;-77
2023/11/06 13:44:24;;;;;;;2.53;1.13;;;;;;;;;;5133197;27;20736;-77
2023/11/06 13:46:51;;;;;;;3.33;1.00;;;;;;;;;;5132680;27;20199;-80
2023/11/06 13:49:18;;;;;;;4.73;1.80;;;;;;;;;;5132771;27;20205;-77
2023/11/06 13:51:48;;;;;;;4.17;1.30;;;;;;;;;;5132933;27;20206;-77
2023/11/06 13:54:28;;;;;;;4.30;1.03;;;;;;;;;;5132463;27;20229;-77
2023/11/06 13:56:54;;;;;;;3.83;1.50;;;;;;;;;;5132608;27;20206;-78
2023/11/06 13:59:28;;;;;;;2.40;1.40;;;;;;;;;;5133042;27;20199;-77
2023/11/06 14:01:57;;;;;;;5.37;1.40;;;;;;;;;;5133313;27;20191;-77
2023/11/06 14:04:24;;;;;;;4.77;1.30;;;;;;;;;;5132524;27;20294;-78
2023/11/06 14:06:54;;;;;;;4.20;1.93;;;;;;;;;;5132225;27;20218;-77
2023/11/06 14:09:34;;;;;;;1.93;1.23;;;;;;;;;;5132468;27;20199;-77
2023/11/06 14:12:04;;;;;;;3.70;1.03;;;;;;;;;;5132633;27;20215;-78
2023/11/06 14:14:31;;;;;;;4.10;1.47;;;;;;;;;;5132006;27;20240;-78
2023/11/06 14:16:59;;;;;;;4.57;1.20;;;;;;;;;;5130844;27;20673;-77
2023/11/06 14:19:27;;;;;;;2.40;1.37;;;;;;;;;;5132702;27;20195;-77
2023/11/06 14:21:53;;;;;;;1.83;1.10;;;;;;;;;;5106078;27;20191;-77
2023/11/06 14:24:22;;;;;;;3.23;1.33;;;;;;;;;;5132286;27;20198;-78
2023/11/06 14:26:49;;;;;;;6.90;1.40;;;;;;;;;;5132175;27;20206;-77
2023/11/06 14:29:16;;;;;;;2.93;1.30;;;;;;;;;;5131580;27;20199;-78
2023/11/06 14:31:43;;;;;;;2.43;1.30;;;;;;;;;;5132737;27;20281;-77
2023/11/06 14:34:11;;;;;;;5.83;1.47;;;;;;;;;;5132004;27;20303;-78
2023/11/06 14:36:38;;;;;;;2.97;1.20;;;;;;;;;;5132472;27;20589;-78
2023/11/06 14:39:07;;;;;;;2.67;1.00;;;;;;;;;;5129479;27;20612;-77
2023/11/06 14:41:36;;;;;;;0.80;0.77;;;;;;;;;;5121032;27;20275;-78
2023/11/06 14:44:04;;;;;;;1.60;1.17;;;;;;;;;;5131279;27;20244;-79
2023/11/06 14:46:30;;;;;;;4.40;1.30;;;;;;;;;;5132350;27;20199;-77
2023/11/06 14:48:58;;;;;;;8.43;2.07;;;;;;;;;;5131818;27;20199;-77
2023/11/06 14:51:25;;;;;;;29.43;11.93;;;;;;;;;;5131767;27;20641;-78
2023/11/06 14:53:51;;;;;;;45.30;20.23;;;;;;;;;;5130839;27;20234;-77